createdAt,value
2018-05-17T00:00:03.449Z,86.46
2018-05-17T00:02:31.176Z,86.61
2018-05-17T00:04:58.772Z,86.55
2018-05-17T00:07:27.336Z,86.44
2018-05-17T00:09:54.975Z,85.72
2018-05-17T00:12:22.612Z,87.07
2018-05-17T00:14:50.249Z,86.85
2018-05-17T00:17:17.872Z,86.86
2018-05-17T00:19:45.625Z,88.05
2018-05-17T00:22:13.279Z,88.05
2018-05-17T00:24:40.881Z,88.12
2018-05-17T00:27:08.526Z,88.64
2018-05-17T00:29:36.130Z,87.50
2018-05-17T00:32:03.805Z,87.04
2018-05-17T00:34:31.415Z,87.51
2018-05-17T00:36:59.172Z,86.96
2018-05-17T00:39:26.775Z,86.94
2018-05-17T00:41:54.413Z,86.94
2018-05-17T00:44:22.038Z,87.27
2018-05-17T00:46:49.686Z,86.63
2018-05-17T00:49:17.325Z,86.60
2018-05-17T00:51:44.996Z,86.99
2018-05-17T00:54:12.691Z,87.31
2018-05-17T00:56:40.313Z,86.94
2018-05-17T00:59:07.912Z,86.82
2018-05-17T01:01:35.585Z,86.30
2018-05-17T01:04:03.205Z,86.87
2018-05-17T01:06:30.847Z,87.20
2018-05-17T01:08:58.436Z,86.07
2018-05-17T01:11:26.033Z,86.33
2018-05-17T01:13:54.933Z,86.56
2018-05-17T01:16:22.579Z,86.99
2018-05-17T01:18:50.209Z,87.18
2018-05-17T01:21:17.898Z,86.69
2018-05-17T01:23:45.531Z,87.05
2018-05-17T01:26:13.411Z,87.59
2018-05-17T01:28:41.075Z,87.94
2018-05-17T01:31:08.726Z,87.55
2018-05-17T01:33:36.943Z,87.08
2018-05-17T01:36:04.694Z,86.54
2018-05-17T01:38:32.652Z,86.36
2018-05-17T01:41:01.294Z,87.31
2018-05-17T01:43:29.113Z,87.38
2018-05-17T01:45:56.767Z,87.50
2018-05-17T01:48:24.429Z,87.43
2018-05-17T01:50:52.049Z,86.87
2018-05-17T01:53:19.651Z,87.06
2018-05-17T01:55:47.304Z,87.97
2018-05-17T01:58:14.965Z,87.45
2018-05-17T02:00:43.555Z,86.02
2018-05-17T02:03:11.168Z,87.11
2018-05-17T02:05:38.814Z,86.72
2018-05-17T02:08:06.441Z,87.08
2018-05-17T02:10:34.305Z,86.97
2018-05-17T02:13:02.027Z,87.68
2018-05-17T02:15:29.620Z,87.58
2018-05-17T02:17:57.321Z,86.67
2018-05-17T02:20:24.982Z,87.20
2018-05-17T02:22:53.345Z,87.39
2018-05-17T02:25:20.932Z,87.39
2018-05-17T02:27:48.591Z,87.26
2018-05-17T02:30:16.196Z,87.19
2018-05-17T02:32:43.894Z,87.50
2018-05-17T02:35:11.480Z,87.73
2018-05-17T02:37:39.085Z,88.11
2018-05-17T02:40:06.728Z,88.86
2018-05-17T02:42:34.444Z,88.92
2018-05-17T02:45:02.102Z,88.87
2018-05-17T02:47:29.714Z,88.76
2018-05-17T02:49:57.363Z,89.08
2018-05-17T02:52:24.995Z,89.66
2018-05-17T02:54:52.662Z,89.33
2018-05-17T02:57:20.346Z,90.01
2018-05-17T02:59:48.020Z,91.37
2018-05-17T03:02:15.946Z,90.96
2018-05-17T03:04:43.710Z,90.13
2018-05-17T03:07:12.399Z,90.29
2018-05-17T03:09:40.231Z,90.79
2018-05-17T03:12:07.880Z,90.49
2018-05-17T03:14:36.370Z,89.79
2018-05-17T03:17:04.320Z,89.72
2018-05-17T03:19:32.562Z,89.72
2018-05-17T03:22:00.848Z,90.27
2018-05-17T03:24:28.554Z,90.05
2018-05-17T03:26:56.359Z,89.90
2018-05-17T03:29:23.964Z,90.44
2018-05-17T03:31:51.627Z,89.80
2018-05-17T03:34:19.238Z,89.28
2018-05-17T03:36:47.588Z,89.69
2018-05-17T03:39:15.696Z,89.49
2018-05-17T03:41:45.823Z,89.68
2018-05-17T03:44:13.667Z,89.60
2018-05-17T03:46:41.429Z,89.95
2018-05-17T03:49:09.761Z,90.56
2018-05-17T03:51:37.368Z,90.35
2018-05-17T03:54:05.135Z,90.45
2018-05-17T03:56:32.879Z,89.39
2018-05-17T03:59:00.544Z,88.66
2018-05-17T04:01:39.916Z,88.37
2018-05-17T04:04:19.253Z,88.90
2018-05-17T04:06:47.218Z,89.74
2018-05-17T04:09:14.859Z,89.13
2018-05-17T04:11:42.525Z,88.66
2018-05-17T04:14:10.313Z,90.06
2018-05-17T04:16:37.976Z,89.72
2018-05-17T04:19:05.588Z,89.83
2018-05-17T04:21:33.814Z,89.37
2018-05-17T04:24:02.236Z,89.92
2018-05-17T04:26:30.474Z,90.26
2018-05-17T04:28:58.130Z,90.43
2018-05-17T04:31:26.340Z,90.65
2018-05-17T04:33:53.982Z,89.82
2018-05-17T04:36:21.601Z,88.26
2018-05-17T04:38:49.389Z,88.46
2018-05-17T04:41:17.006Z,89.79
2018-05-17T04:43:44.836Z,89.28
2018-05-17T04:46:12.978Z,89.22
2018-05-17T04:48:40.625Z,89.47
2018-05-17T04:51:08.851Z,88.89
2018-05-17T04:53:36.555Z,88.90
2018-05-17T04:56:04.209Z,89.09
2018-05-17T04:58:31.887Z,88.66
2018-05-17T05:00:59.502Z,87.46
2018-05-17T05:03:27.086Z,88.62
2018-05-17T05:05:54.905Z,88.85
2018-05-17T05:08:22.573Z,88.43
2018-05-17T05:10:50.198Z,87.20
2018-05-17T05:13:17.849Z,87.31
2018-05-17T05:15:45.611Z,87.18
2018-05-17T05:18:13.307Z,87.92
2018-05-17T05:20:41.625Z,87.99
2018-05-17T05:23:09.362Z,88.55
2018-05-17T05:25:37.195Z,87.63
2018-05-17T05:28:05.098Z,85.25
2018-05-17T05:30:32.865Z,87.27
2018-05-17T05:33:00.722Z,86.93
2018-05-17T05:35:28.368Z,86.68
2018-05-17T05:37:56.029Z,83.68
2018-05-17T05:40:23.688Z,82.47
2018-05-17T05:42:51.360Z,78.85
2018-05-17T05:45:19.146Z,77.87
2018-05-17T05:47:46.740Z,79.52
2018-05-17T05:50:14.468Z,77.87
2018-05-17T05:52:42.335Z,78.27
2018-05-17T05:55:10.558Z,79.22
2018-05-17T05:57:38.434Z,79.62
2018-05-17T06:00:06.051Z,80.09
2018-05-17T06:02:33.687Z,79.24
2018-05-17T06:05:01.355Z,79.32
2018-05-17T06:07:29.040Z,79.68
2018-05-17T06:09:56.668Z,81.97
2018-05-17T06:12:24.348Z,80.50
2018-05-17T06:14:52.201Z,78.95
2018-05-17T06:17:19.907Z,79.18
2018-05-17T06:19:48.912Z,77.07
2018-05-17T06:22:16.559Z,73.78
2018-05-17T06:24:45.878Z,75.32
2018-05-17T06:27:14.325Z,74.69
2018-05-17T06:29:42.165Z,73.69
2018-05-17T06:32:10.564Z,73.02
2018-05-17T06:34:38.775Z,71.69
2018-05-17T06:37:06.460Z,71.73
2018-05-17T06:39:34.063Z,71.00
2018-05-17T06:42:01.760Z,71.63
2018-05-17T06:44:29.399Z,69.70
2018-05-17T06:46:57.028Z,71.00
2018-05-17T06:49:24.671Z,71.25
2018-05-17T06:51:52.298Z,70.07
2018-05-17T06:54:20.130Z,71.89
2018-05-17T06:56:48.209Z,70.92
2018-05-17T06:59:16.560Z,69.58
2018-05-17T07:01:44.189Z,69.26
2018-05-17T07:04:11.858Z,67.47
2018-05-17T07:06:39.539Z,66.29
2018-05-17T07:09:07.326Z,65.85
2018-05-17T07:11:35.594Z,66.47
2018-05-17T07:14:03.232Z,65.93
2018-05-17T07:16:30.887Z,67.31
2018-05-17T07:18:58.589Z,66.77
2018-05-17T07:21:26.259Z,67.30
2018-05-17T07:23:53.901Z,67.60
2018-05-17T07:26:21.590Z,67.19
2018-05-17T07:28:49.483Z,67.38
2018-05-17T07:31:17.236Z,65.93
2018-05-17T07:33:44.794Z,65.06
2018-05-17T07:36:12.472Z,64.62
2018-05-17T07:38:41.038Z,65.63
2018-05-17T07:41:08.691Z,66.90
2018-05-17T07:43:36.341Z,66.42
2018-05-17T07:46:03.950Z,66.12
2018-05-17T07:48:31.655Z,66.79
2018-05-17T07:50:59.270Z,65.04
2018-05-17T07:53:26.926Z,65.66
2018-05-17T07:55:54.526Z,65.89
2018-05-17T07:58:22.338Z,67.01
2018-05-17T08:00:49.960Z,64.59
2018-05-17T08:03:17.598Z,64.20
2018-05-17T08:05:45.239Z,64.96
2018-05-17T08:08:12.911Z,65.49
2018-05-17T08:10:40.623Z,64.11
2018-05-17T08:13:08.226Z,65.05
2018-05-17T08:15:35.998Z,62.17
2018-05-17T08:18:03.728Z,62.07
2018-05-17T08:20:31.435Z,61.14
2018-05-17T08:22:59.058Z,61.08
2018-05-17T08:25:26.840Z,61.58
2018-05-17T08:27:54.501Z,62.42
2018-05-17T08:30:22.589Z,61.69
2018-05-17T08:32:51.167Z,62.55
2018-05-17T08:35:18.835Z,61.50
2018-05-17T08:37:46.458Z,60.96
2018-05-17T08:40:14.215Z,62.25
2018-05-17T08:42:41.874Z,60.98
2018-05-17T08:45:09.560Z,61.46
2018-05-17T08:47:37.180Z,61.51
2018-05-17T08:50:04.865Z,61.10
2018-05-17T08:52:32.487Z,61.08
2018-05-17T08:55:00.170Z,61.43
2018-05-17T08:57:27.869Z,61.45
2018-05-17T08:59:55.461Z,61.37
2018-05-17T09:02:23.127Z,61.05
2018-05-17T09:04:50.724Z,60.38
2018-05-17T09:07:18.369Z,58.66
2018-05-17T09:09:45.993Z,58.60
2018-05-17T09:12:13.643Z,56.38
2018-05-17T09:14:41.266Z,57.47
2018-05-17T09:17:08.865Z,56.67
2018-05-17T09:19:36.521Z,57.58
2018-05-17T09:22:04.130Z,58.64
2018-05-17T09:24:32.001Z,58.93
2018-05-17T09:26:59.628Z,58.07
2018-05-17T09:29:27.289Z,58.91
2018-05-17T09:31:54.954Z,59.01
2018-05-17T09:34:22.574Z,57.66
2018-05-17T09:36:51.043Z,57.62
2018-05-17T09:39:18.641Z,59.13
2018-05-17T09:41:46.320Z,58.50
2018-05-17T09:44:13.973Z,59.11
2018-05-17T09:46:42.202Z,58.57
2018-05-17T09:49:09.844Z,58.55
2018-05-17T09:51:37.563Z,57.48
2018-05-17T09:54:05.241Z,57.12
2018-05-17T09:56:33.549Z,57.13
2018-05-17T09:59:01.685Z,57.22
2018-05-17T10:01:29.442Z,57.75
2018-05-17T10:03:57.240Z,57.27
2018-05-17T10:06:25.075Z,55.69
2018-05-17T10:08:52.698Z,55.26
2018-05-17T10:11:20.605Z,55.19
2018-05-17T10:13:48.260Z,55.33
2018-05-17T10:16:16.295Z,54.22
2018-05-17T10:18:43.894Z,56.12
2018-05-17T10:21:12.074Z,55.94
2018-05-17T10:23:39.745Z,54.84
2018-05-17T10:26:07.349Z,54.46
2018-05-17T10:28:35.065Z,53.92
2018-05-17T10:31:02.764Z,52.92
2018-05-17T10:33:30.583Z,52.62
2018-05-17T10:35:58.250Z,53.32
2018-05-17T10:38:25.932Z,53.51
2018-05-17T10:40:53.538Z,53.24
2018-05-17T10:43:21.209Z,53.03
2018-05-17T10:45:48.851Z,54.28
2018-05-17T10:48:16.458Z,53.27
2018-05-17T10:50:44.891Z,53.76
2018-05-17T10:53:12.502Z,53.27
2018-05-17T10:55:40.166Z,53.55
2018-05-17T10:58:08.433Z,53.11
2018-05-17T11:00:36.074Z,53.92
2018-05-17T11:03:03.745Z,56.24
2018-05-17T11:05:31.502Z,50.06
2018-05-17T11:07:59.150Z,51.09
2018-05-17T11:10:26.838Z,51.86
2018-05-17T11:12:54.466Z,50.84
2018-05-17T11:15:22.189Z,50.38
2018-05-17T11:17:49.806Z,50.15
2018-05-17T11:20:17.593Z,48.66
2018-05-17T11:22:45.306Z,50.50
2018-05-17T11:25:12.993Z,48.25
2018-05-17T11:27:40.613Z,48.55
2018-05-17T11:30:08.597Z,49.58
2018-05-17T11:32:36.225Z,48.66
2018-05-17T11:35:03.934Z,46.55
2018-05-17T11:37:31.598Z,48.41
2018-05-17T11:39:59.425Z,49.83
2018-05-17T11:42:27.100Z,48.48
2018-05-17T11:44:54.741Z,49.52
2018-05-17T11:47:22.363Z,50.12
2018-05-17T11:49:50.023Z,50.82
2018-05-17T11:52:17.847Z,49.75
2018-05-17T11:54:45.802Z,51.07
2018-05-17T11:57:13.437Z,50.20
2018-05-17T11:59:41.319Z,50.56
2018-05-17T12:02:09.846Z,51.81
2018-05-17T12:04:38.045Z,51.47
2018-05-17T12:07:06.366Z,51.65
2018-05-17T12:09:34.051Z,50.86
2018-05-17T12:12:01.786Z,47.92
2018-05-17T12:14:29.439Z,48.17
2018-05-17T12:16:57.153Z,49.81
2018-05-17T12:19:25.245Z,49.69
2018-05-17T12:21:53.120Z,49.06
2018-05-17T12:24:20.772Z,49.86
2018-05-17T12:26:48.651Z,49.68
2018-05-17T12:29:16.341Z,50.07
2018-05-17T12:31:43.978Z,50.30
2018-05-17T12:34:11.675Z,51.06
2018-05-17T12:36:39.356Z,51.92
2018-05-17T12:39:07.083Z,51.16
2018-05-17T12:41:35.630Z,50.91
2018-05-17T12:44:03.298Z,51.25
2018-05-17T12:46:30.953Z,51.58
2018-05-17T12:48:58.611Z,53.34
2018-05-17T12:51:26.272Z,52.48
2018-05-17T12:53:53.934Z,51.25
2018-05-17T12:56:21.615Z,53.01
2018-05-17T12:58:49.357Z,53.00
2018-05-17T13:01:17.052Z,52.76
2018-05-17T13:03:44.765Z,50.49
2018-05-17T13:06:12.526Z,50.95
2018-05-17T13:08:40.943Z,50.91
2018-05-17T13:11:08.817Z,49.39
2018-05-17T13:13:36.528Z,49.75
2018-05-17T13:16:04.217Z,50.18
2018-05-17T13:18:31.936Z,51.28
2018-05-17T13:20:59.632Z,51.41
2018-05-17T13:23:27.283Z,50.95
2018-05-17T13:25:54.953Z,52.05
2018-05-17T13:28:22.547Z,50.78
2018-05-17T13:30:50.220Z,51.81
2018-05-17T13:33:17.864Z,50.80
2018-05-17T13:35:45.520Z,54.40
2018-05-17T13:38:13.161Z,55.51
2018-05-17T13:40:40.835Z,56.55
2018-05-17T13:43:08.991Z,57.27
2018-05-17T13:45:36.848Z,57.11
2018-05-17T13:48:04.476Z,55.52
2018-05-17T13:50:32.171Z,57.16
2018-05-17T13:52:59.861Z,57.59
2018-05-17T13:55:27.554Z,56.89
2018-05-17T13:57:56.183Z,55.36
2018-05-17T14:00:24.033Z,57.92
2018-05-17T14:02:51.764Z,54.94
2018-05-17T14:05:19.388Z,55.06
2018-05-17T14:07:47.007Z,55.98
2018-05-17T14:10:14.701Z,56.64
2018-05-17T14:12:42.383Z,55.19
2018-05-17T14:15:10.118Z,55.28
2018-05-17T14:17:37.956Z,57.14
2018-05-17T14:20:05.585Z,58.00
2018-05-17T14:22:33.291Z,54.81
2018-05-17T14:25:01.292Z,53.60
2018-05-17T14:27:30.351Z,53.23
2018-05-17T14:29:58.060Z,52.96
2018-05-17T14:32:25.769Z,55.47
2018-05-17T14:34:53.411Z,58.05
2018-05-17T14:37:22.160Z,58.55
2018-05-17T14:39:49.909Z,55.49
2018-05-17T14:42:17.867Z,59.34
2018-05-17T14:44:45.568Z,60.71
2018-05-17T14:47:13.232Z,59.60
2018-05-17T14:49:40.882Z,59.11
2018-05-17T14:52:08.572Z,59.36
2018-05-17T14:54:36.228Z,60.44
2018-05-17T14:57:03.836Z,59.17
2018-05-17T14:59:31.493Z,58.72
2018-05-17T15:01:59.211Z,58.32
2018-05-17T15:04:26.863Z,57.35
2018-05-17T15:06:54.510Z,58.13
2018-05-17T15:09:22.182Z,57.84
2018-05-17T15:11:49.878Z,56.71
2018-05-17T15:14:17.544Z,57.90
2018-05-17T15:16:45.188Z,59.99
2018-05-17T15:19:13.516Z,60.48
2018-05-17T15:21:41.477Z,61.43
2018-05-17T15:24:10.460Z,62.69
2018-05-17T15:26:38.636Z,62.81
2018-05-17T15:29:07.846Z,62.35
2018-05-17T15:31:36.067Z,62.96
2018-05-17T15:34:03.890Z,61.34
2018-05-17T15:36:31.578Z,60.86
2018-05-17T15:38:59.222Z,60.64
2018-05-17T15:41:26.922Z,57.89
2018-05-17T15:43:54.638Z,59.60
2018-05-17T15:46:22.288Z,61.56
2018-05-17T15:48:50.196Z,60.08
2018-05-17T15:51:18.548Z,59.86
2018-05-17T15:53:48.233Z,60.13
2018-05-17T15:56:15.880Z,60.64
2018-05-17T15:58:43.598Z,61.40
2018-05-17T16:01:11.299Z,61.24
2018-05-17T16:03:38.965Z,61.97
2018-05-17T16:06:06.714Z,58.97
2018-05-17T16:08:34.566Z,58.31
2018-05-17T16:11:02.162Z,57.78
2018-05-17T16:13:29.804Z,57.53
2018-05-17T16:15:57.463Z,57.49
2018-05-17T16:18:25.130Z,57.70
2018-05-17T16:20:52.832Z,58.61
2018-05-17T16:23:20.473Z,58.91
2018-05-17T16:25:48.195Z,56.92
2018-05-17T16:28:16.336Z,57.33
2018-05-17T16:30:44.375Z,57.31
2018-05-17T16:33:12.091Z,57.97
2018-05-17T16:35:39.703Z,56.92
2018-05-17T16:38:07.360Z,56.61
2018-05-17T16:40:35.127Z,55.77
2018-05-17T16:43:02.840Z,56.15
2018-05-17T16:45:30.928Z,55.83
2018-05-17T16:47:58.533Z,56.35
2018-05-17T16:50:26.256Z,55.96
2018-05-17T16:52:53.937Z,56.06
2018-05-17T16:55:21.559Z,56.17
2018-05-17T16:57:49.333Z,57.21
2018-05-17T17:00:17.049Z,57.47
2018-05-17T17:02:44.790Z,57.22
2018-05-17T17:05:13.547Z,58.50
2018-05-17T17:07:41.234Z,58.33
2018-05-17T17:10:09.313Z,58.42
2018-05-17T17:12:37.040Z,58.79
2018-05-17T17:15:05.022Z,57.98
2018-05-17T17:17:32.768Z,57.75
2018-05-17T17:20:00.525Z,56.97
2018-05-17T17:22:28.255Z,57.62
2018-05-17T17:24:56.085Z,57.36
2018-05-17T17:27:24.286Z,58.21
2018-05-17T17:29:51.966Z,57.53
2018-05-17T17:32:19.672Z,57.58
2018-05-17T17:34:47.491Z,57.50
2018-05-17T17:37:15.246Z,58.19
2018-05-17T17:39:42.963Z,57.99
2018-05-17T17:42:10.655Z,57.93
2018-05-17T17:44:38.417Z,58.02
2018-05-17T17:47:06.243Z,58.31
2018-05-17T17:49:34.011Z,58.97
2018-05-17T17:52:01.704Z,58.90
2018-05-17T17:54:29.347Z,59.16
2018-05-17T17:56:57.077Z,59.59
2018-05-17T17:59:24.746Z,59.62
2018-05-17T18:01:52.397Z,59.82
2018-05-17T18:04:20.132Z,60.59
2018-05-17T18:06:47.830Z,61.76
2018-05-17T18:09:15.569Z,59.57
2018-05-17T18:11:43.325Z,61.64
2018-05-17T18:14:11.944Z,58.70
2018-05-17T18:16:39.658Z,61.32
2018-05-17T18:19:07.385Z,61.81
2018-05-17T18:21:35.084Z,61.40
2018-05-17T18:24:02.738Z,58.54
2018-05-17T18:26:30.460Z,58.88
2018-05-17T18:28:58.278Z,59.28
2018-05-17T18:31:26.183Z,59.00
2018-05-17T18:33:53.930Z,60.30
2018-05-17T18:36:21.581Z,59.38
2018-05-17T18:38:49.259Z,59.42
2018-05-17T18:41:16.909Z,59.61
2018-05-17T18:43:45.562Z,57.72
2018-05-17T18:46:15.034Z,58.46
2018-05-17T18:48:43.036Z,59.34
2018-05-17T18:51:10.925Z,59.15
2018-05-17T18:53:40.788Z,60.69
2018-05-17T18:56:08.678Z,61.42
2018-05-17T18:58:36.492Z,62.01
2018-05-17T19:01:04.619Z,63.23
2018-05-17T19:03:33.034Z,63.30
2018-05-17T19:06:00.722Z,64.78
2018-05-17T19:08:29.815Z,66.30
2018-05-17T19:10:57.997Z,64.46
2018-05-17T19:13:26.163Z,65.02
2018-05-17T19:15:54.500Z,64.37
2018-05-17T19:18:22.286Z,62.43
2018-05-17T19:20:50.155Z,61.14
2018-05-17T19:23:17.851Z,59.90
2018-05-17T19:25:46.169Z,59.87
2018-05-17T19:28:13.881Z,59.92
2018-05-17T19:30:42.119Z,60.60
2018-05-17T19:33:10.447Z,60.66
2018-05-17T19:35:38.078Z,60.16
2018-05-17T19:38:05.773Z,60.94
2018-05-17T19:40:33.433Z,60.70
2018-05-17T19:43:01.104Z,60.27
2018-05-17T19:45:28.858Z,60.29
2018-05-17T19:47:56.461Z,60.13
2018-05-17T19:50:24.115Z,60.49
2018-05-17T19:52:51.798Z,61.70
2018-05-17T19:55:19.488Z,62.03
2018-05-17T19:57:47.253Z,61.06
2018-05-17T20:00:14.926Z,61.02
2018-05-17T20:02:43.437Z,61.54
2018-05-17T20:05:11.193Z,61.51
2018-05-17T20:07:38.911Z,62.73
2018-05-17T20:10:08.567Z,63.44
2018-05-17T20:12:36.214Z,64.50
2018-05-17T20:15:04.071Z,64.04
2018-05-17T20:17:32.405Z,64.10
2018-05-17T20:20:00.093Z,64.79
2018-05-17T20:22:27.888Z,64.93
2018-05-17T20:24:55.579Z,63.17
2018-05-17T20:27:23.305Z,64.50
2018-05-17T20:29:51.006Z,64.92
2018-05-17T20:32:18.624Z,65.18
2018-05-17T20:34:46.304Z,64.99
2018-05-17T20:37:13.994Z,64.06
2018-05-17T20:39:41.626Z,65.64
2018-05-17T20:42:09.294Z,65.63
2018-05-17T20:44:36.931Z,65.80
2018-05-17T20:47:04.606Z,65.38
2018-05-17T20:49:32.496Z,63.92
2018-05-17T20:52:00.167Z,64.00
2018-05-17T20:54:27.861Z,65.94
2018-05-17T20:56:55.504Z,67.75
2018-05-17T20:59:23.165Z,68.43
2018-05-17T21:01:50.781Z,69.65
2018-05-17T21:04:19.268Z,70.52
2018-05-17T21:06:46.918Z,67.46
2018-05-17T21:09:14.609Z,67.47
2018-05-17T21:11:42.212Z,68.18
2018-05-17T21:14:09.888Z,69.19
2018-05-17T21:16:37.555Z,69.58
2018-05-17T21:19:05.169Z,69.61
2018-05-17T21:21:32.769Z,71.03
2018-05-17T21:24:00.453Z,71.73
2018-05-17T21:26:28.063Z,70.26
2018-05-17T21:28:55.732Z,70.86
2018-05-17T21:31:23.392Z,70.64
2018-05-17T21:33:51.072Z,71.31
2018-05-17T21:36:18.680Z,71.99
2018-05-17T21:38:46.405Z,72.15
2018-05-17T21:41:14.026Z,72.30
2018-05-17T21:43:41.668Z,72.13
2018-05-17T21:46:09.327Z,72.21
2018-05-17T21:48:37.051Z,73.15
2018-05-17T21:51:04.721Z,73.32
2018-05-17T21:53:32.342Z,72.87
2018-05-17T21:55:59.975Z,73.33
2018-05-17T21:58:32.579Z,74.24
2018-05-17T22:01:00.220Z,73.58
2018-05-17T22:03:27.880Z,70.49
2018-05-17T22:05:55.532Z,71.75
2018-05-17T22:08:23.127Z,73.23
2018-05-17T22:10:50.781Z,73.66
2018-05-17T22:13:18.406Z,74.54
2018-05-17T22:15:46.045Z,74.37
2018-05-17T22:18:13.696Z,74.83
2018-05-17T22:20:41.341Z,74.26
2018-05-17T22:23:08.928Z,74.12
2018-05-17T22:25:36.604Z,74.54
2018-05-17T22:28:04.296Z,76.16
2018-05-17T22:30:31.969Z,76.04
2018-05-17T22:32:59.551Z,75.78
2018-05-17T22:35:27.191Z,76.21
2018-05-17T22:37:54.821Z,75.57
2018-05-17T22:40:22.487Z,75.29
2018-05-17T22:42:50.091Z,75.87
2018-05-17T22:45:17.697Z,76.54
2018-05-17T22:47:45.309Z,75.97
2018-05-17T22:50:13.585Z,75.87
2018-05-17T22:52:41.265Z,75.98
2018-05-17T22:55:08.880Z,76.88
2018-05-17T22:57:48.452Z,76.56
2018-05-17T23:00:16.184Z,76.86
2018-05-17T23:02:43.836Z,76.73
2018-05-17T23:05:11.453Z,77.38
2018-05-17T23:07:39.110Z,78.26
2018-05-17T23:10:06.779Z,78.50
2018-05-17T23:12:34.384Z,78.02
2018-05-17T23:15:02.081Z,78.59
2018-05-17T23:17:29.715Z,77.99
2018-05-17T23:19:57.352Z,78.33
2018-05-17T23:22:36.918Z,77.90
2018-05-17T23:25:04.622Z,78.44
2018-05-17T23:27:32.382Z,77.68
2018-05-17T23:30:00.039Z,77.13
2018-05-17T23:32:27.672Z,77.97
2018-05-17T23:34:55.435Z,77.67
2018-05-17T23:37:23.118Z,78.45
2018-05-17T23:39:50.756Z,77.61
2018-05-17T23:42:18.398Z,77.54
2018-05-17T23:44:46.017Z,76.93
2018-05-17T23:47:13.592Z,77.14
2018-05-17T23:49:41.243Z,77.97
2018-05-17T23:52:08.841Z,78.19
2018-05-17T23:54:36.483Z,78.57
2018-05-17T23:57:04.098Z,78.84
2018-05-17T23:59:31.881Z,78.85
